Portada
METAR-TAF:

METAR-TAF

Aeroports :

John H. Batten Airport

Racine, Wisconsin, Estats Units d'Amèrica

latitud: 42-45-31N, longitud: 087-49-04W, altitud: 205 m

Observació

L'informe es va fer fa 1 hora i 12 minuts, a les 08:53 UTC
Vent 6 kt del Oest/Sud-Oest
Temperatura 4°C
Humitat 60%
Pressió 1017 hPa
Visibilitat: 16.1 km
Cel clar

METAR: KRAC 220853Z AUTO 25006KT 10SM CLR 04/M03 A3003 RMK AO2 SLP173 T00391028 56009

Hora: 05:05 (10:05 UTC)


TAF: manca

Observacions i pronòstics meteorològics de més de 4000 aeroports (METAR i TAF).

Les estacions disponibles són els punts grocs i vermells al mapa.

Posi el ratolí al punt desitjat per veure el nom de l'estació.

Feu clic per veure les observacions i els pronòstics meteorològics.

Per canviar el mapa: feu clic els botons verds amb una creu de color negre per apropar; al botó verd amb un guió per allunyar la imatge; o en les fletxes verdes per a mapes adjacents.


METAR-TAF: